createdAt,value
2022-11-20T00:00:48.961Z,15.60
2022-11-20T00:03:19.337Z,15.50
2022-11-20T00:05:49.874Z,14.50
2022-11-20T00:08:20.207Z,14.70
2022-11-20T00:10:50.672Z,17.20
2022-11-20T00:13:21.056Z,13.30
2022-11-20T00:15:52.908Z,14.30
2022-11-20T00:18:23.260Z,14.30
2022-11-20T00:20:53.666Z,15.50
2022-11-20T00:23:24.116Z,14.60
2022-11-20T00:25:54.445Z,15.00
2022-11-20T00:28:24.797Z,13.50
2022-11-20T00:30:57.155Z,14.80
2022-11-20T00:33:27.619Z,14.50
2022-11-20T00:36:03.250Z,13.80
2022-11-20T00:38:33.908Z,14.60
2022-11-20T00:41:05.531Z,17.40
2022-11-20T00:43:36.357Z,14.90
2022-11-20T00:46:08.971Z,12.40
2022-11-20T00:48:39.612Z,15.40
2022-11-20T00:51:10.176Z,15.30
2022-11-20T00:53:40.559Z,16.00
2022-11-20T00:56:13.540Z,14.80
2022-11-20T01:01:15.246Z,14.50
2022-11-20T01:03:47.166Z,13.60
2022-11-20T01:06:19.324Z,13.70
2022-11-20T01:08:51.079Z,15.60
2022-11-20T01:11:23.039Z,14.30
2022-11-20T01:13:55.395Z,14.40
2022-11-20T01:16:27.000Z,14.30
2022-11-20T01:18:58.334Z,16.80
2022-11-20T01:21:30.096Z,17.60
2022-11-20T01:24:01.032Z,15.90
2022-11-20T01:26:33.230Z,14.40
2022-11-20T01:29:04.547Z,14.60
2022-11-20T01:31:36.339Z,13.90
2022-11-20T01:34:09.838Z,16.10
2022-11-20T01:36:42.222Z,14.90
2022-11-20T01:39:15.193Z,15.30
2022-11-20T01:42:08.353Z,15.30
2022-11-20T01:44:58.170Z,16.50
2022-11-20T01:47:31.564Z,16.10
2022-11-20T01:50:06.744Z,16.40
2022-11-20T01:52:40.248Z,15.80
2022-11-20T01:55:13.532Z,15.10
2022-11-20T01:57:44.428Z,16.60
2022-11-20T02:00:18.234Z,18.30
2022-11-20T02:02:52.012Z,16.70
2022-11-20T02:05:27.617Z,16.70
2022-11-20T02:07:59.603Z,16.40
2022-11-20T02:10:30.893Z,15.40
2022-11-20T02:13:18.612Z,14.70
2022-11-20T02:15:49.027Z,16.40
2022-11-20T02:18:21.273Z,16.90
2022-11-20T02:20:54.656Z,15.40
2022-11-20T02:23:28.976Z,15.70
2022-11-20T02:26:00.842Z,16.20
2022-11-20T02:28:31.278Z,14.30
2022-11-20T02:31:01.629Z,15.20
2022-11-20T02:33:32.090Z,14.30
2022-11-20T02:36:02.452Z,17.10
2022-11-20T02:38:32.828Z,16.40
2022-11-20T02:41:03.219Z,13.60
2022-11-20T02:43:33.820Z,13.20
2022-11-20T02:46:04.716Z,15.90
2022-11-20T02:48:35.172Z,15.20
2022-11-20T02:51:06.295Z,16.30
2022-11-20T02:53:36.758Z,16.80
2022-11-20T02:56:08.451Z,15.70
2022-11-20T02:58:38.940Z,13.90
2022-11-20T03:01:09.450Z,14.40
2022-11-20T03:03:39.951Z,12.60
2022-11-20T03:06:10.637Z,13.40
2022-11-20T03:08:41.137Z,13.90
2022-11-20T03:11:12.241Z,17.30
2022-11-20T03:13:43.029Z,16.30
2022-11-20T03:16:15.692Z,14.90
2022-11-20T03:18:46.861Z,14.20
2022-11-20T03:21:17.679Z,13.40
2022-11-20T03:23:48.179Z,14.10
2022-11-20T03:26:20.730Z,13.40
2022-11-20T03:28:52.320Z,15.80
2022-11-20T03:31:24.584Z,16.90
2022-11-20T03:33:55.060Z,16.70
2022-11-20T03:36:26.462Z,14.70
2022-11-20T03:38:58.015Z,14.40
2022-11-20T03:41:29.725Z,13.90
2022-11-20T03:44:01.447Z,12.10
2022-11-20T03:46:32.045Z,15.20
2022-11-20T03:49:02.486Z,18.60
2022-11-20T03:51:34.308Z,20.40
2022-11-20T03:54:06.391Z,18.60
2022-11-20T03:56:38.190Z,15.60
2022-11-20T03:59:09.022Z,15.30
2022-11-20T04:01:43.194Z,13.60
2022-11-20T04:04:18.461Z,16.40
2022-11-20T04:06:50.345Z,18.30
2022-11-20T04:09:23.667Z,18.10
2022-11-20T04:14:27.124Z,17.70
2022-11-20T04:16:58.832Z,16.00
2022-11-20T04:19:30.487Z,15.80
2022-11-20T04:22:02.873Z,15.60
2022-11-20T04:24:34.950Z,13.30
2022-11-20T04:27:08.087Z,15.90
2022-11-20T04:29:40.225Z,17.80
2022-11-20T04:32:12.426Z,18.50
2022-11-20T04:34:44.702Z,17.30
2022-11-20T04:37:16.288Z,15.10
2022-11-20T04:39:47.704Z,15.10
2022-11-20T04:42:31.444Z,14.30
2022-11-20T04:45:04.003Z,13.80
2022-11-20T04:47:37.187Z,16.00
2022-11-20T04:50:10.315Z,17.10
2022-11-20T04:52:42.440Z,15.60
2022-11-20T04:55:15.809Z,16.00
2022-11-20T04:57:48.474Z,14.50
2022-11-20T05:07:34.417Z,16.20
2022-11-20T05:10:05.487Z,16.90
2022-11-20T05:12:36.161Z,15.50
2022-11-20T05:15:07.451Z,14.10
2022-11-20T05:17:37.946Z,13.90
2022-11-20T05:20:10.036Z,11.90
2022-11-20T05:22:40.505Z,12.90
2022-11-20T05:25:11.540Z,15.90
2022-11-20T05:27:41.886Z,17.60
2022-11-20T05:30:14.914Z,14.90
2022-11-20T05:35:14.146Z,15.00
2022-11-20T05:37:44.519Z,11.50
2022-11-20T05:40:16.231Z,16.40
2022-11-20T05:42:46.681Z,18.00
2022-11-20T05:45:17.152Z,17.10
2022-11-20T05:47:47.724Z,14.40
2022-11-20T05:50:18.410Z,15.00
2022-11-20T05:52:48.738Z,13.70
2022-11-20T05:55:19.312Z,12.80
2022-11-20T05:57:49.712Z,16.20
2022-11-20T06:00:20.899Z,18.40
2022-11-20T06:02:51.405Z,16.10
2022-11-20T06:05:22.019Z,15.10
2022-11-20T06:07:52.408Z,14.20
2022-11-20T06:10:22.764Z,14.30
2022-11-20T06:12:53.271Z,15.90
2022-11-20T06:15:23.712Z,15.60
2022-11-20T06:17:56.754Z,15.10
2022-11-20T06:22:56.575Z,13.60
2022-11-20T06:25:26.950Z,12.00
2022-11-20T06:27:57.337Z,15.00
2022-11-20T06:30:27.819Z,16.40
2022-11-20T06:32:58.213Z,17.60
2022-11-20T06:35:28.645Z,17.30
2022-11-20T06:37:59.290Z,14.80
2022-11-20T06:40:29.620Z,14.50
2022-11-20T06:42:59.992Z,13.80
2022-11-20T06:45:30.371Z,14.70
2022-11-20T06:48:01.941Z,15.10
2022-11-20T06:50:32.442Z,17.50
2022-11-20T06:53:05.137Z,15.80
2022-11-20T06:55:35.564Z,15.90
2022-11-20T06:58:06.003Z,15.20
2022-11-20T07:00:36.408Z,15.30
2022-11-20T07:03:07.936Z,14.00
2022-11-20T07:05:39.327Z,14.80
2022-11-20T07:08:10.003Z,16.40
2022-11-20T07:10:40.465Z,15.60
2022-11-20T07:13:10.866Z,14.70
2022-11-20T07:15:41.253Z,13.90
2022-11-20T07:18:12.161Z,14.10
2022-11-20T07:20:42.488Z,13.40
2022-11-20T07:23:12.879Z,12.80
2022-11-20T07:25:43.280Z,15.40
2022-11-20T07:28:14.880Z,14.30
2022-11-20T07:30:45.232Z,14.00
2022-11-20T07:33:15.649Z,13.30
2022-11-20T07:35:46.026Z,11.30
2022-11-20T07:38:16.602Z,11.80
2022-11-20T07:44:13.838Z,15.10
2022-11-20T07:46:44.285Z,14.20
2022-11-20T07:49:14.691Z,13.80
2022-11-20T07:51:46.969Z,13.10
2022-11-20T07:54:19.381Z,11.40
2022-11-20T07:56:49.940Z,12.20
2022-11-20T07:59:20.581Z,13.00
2022-11-20T08:01:51.733Z,13.90
2022-11-20T08:04:22.595Z,12.80
2022-11-20T08:06:53.610Z,11.80
2022-11-20T08:09:24.587Z,12.40
2022-11-20T08:12:12.377Z,10.70
2022-11-20T08:14:43.058Z,10.40
2022-11-20T08:17:13.503Z,10.80
2022-11-20T08:19:43.927Z,9.20
2022-11-20T08:22:14.681Z,10.40
2022-11-20T08:24:45.084Z,10.20
2022-11-20T08:27:15.491Z,9.00
2022-11-20T08:29:48.582Z,9.20
2022-11-20T08:32:18.914Z,9.10
2022-11-20T08:34:49.303Z,9.50
2022-11-20T08:37:19.691Z,10.10
2022-11-20T08:39:50.015Z,9.50
2022-11-20T08:42:20.399Z,9.40
2022-11-20T08:44:50.755Z,9.80
2022-11-20T08:47:21.163Z,9.10
2022-11-20T08:49:51.482Z,10.30
2022-11-20T08:52:21.842Z,8.90
2022-11-20T08:54:52.225Z,10.10
2022-11-20T08:57:22.750Z,9.10
2022-11-20T09:00:09.192Z,9.30
2022-11-20T09:02:39.892Z,10.10
2022-11-20T09:05:10.791Z,8.80
2022-11-20T09:07:42.152Z,10.60
2022-11-20T09:10:28.408Z,10.00
2022-11-20T09:12:59.005Z,9.40
2022-11-20T09:15:29.494Z,9.70
2022-11-20T09:18:02.111Z,10.30
2022-11-20T09:20:33.309Z,8.60
2022-11-20T09:23:03.730Z,9.60
2022-11-20T09:25:34.085Z,9.30
2022-11-20T09:28:04.579Z,9.30
2022-11-20T09:30:35.070Z,9.00
2022-11-20T09:33:07.882Z,8.90
2022-11-20T09:35:38.502Z,8.60
2022-11-20T09:38:11.536Z,8.40
2022-11-20T09:43:16.346Z,6.60
2022-11-20T09:46:00.772Z,7.50
2022-11-20T09:48:57.265Z,8.00
2022-11-20T09:51:36.759Z,7.30
2022-11-20T09:54:18.993Z,8.90
2022-11-20T09:56:51.947Z,8.00
2022-11-20T09:59:37.270Z,8.30
2022-11-20T10:02:18.705Z,8.40
2022-11-20T10:04:54.174Z,9.00
2022-11-20T10:07:34.075Z,8.50
2022-11-20T10:10:04.893Z,7.20
2022-11-20T10:12:50.101Z,7.80
2022-11-20T10:15:29.796Z,7.30
2022-11-20T10:18:11.371Z,8.00
2022-11-20T10:20:48.464Z,8.50
2022-11-20T10:23:41.239Z,8.70
2022-11-20T10:26:22.760Z,8.00
2022-11-20T10:29:07.536Z,8.50
2022-11-20T10:31:40.405Z,8.30
2022-11-20T10:34:22.599Z,9.00
2022-11-20T10:36:56.547Z,10.20
2022-11-20T10:39:33.478Z,14.40
2022-11-20T10:42:06.706Z,14.00
2022-11-20T10:44:56.647Z,13.60
2022-11-20T10:47:29.167Z,14.00
2022-11-20T10:50:03.635Z,14.30
2022-11-20T10:52:37.940Z,14.60
2022-11-20T10:55:19.676Z,15.70
2022-11-20T10:57:56.031Z,11.90
2022-11-20T11:00:26.561Z,15.30
2022-11-20T11:03:03.281Z,13.80
2022-11-20T11:05:38.478Z,14.10
2022-11-20T11:08:14.806Z,13.50
2022-11-20T11:10:52.969Z,14.20
2022-11-20T11:13:24.787Z,11.20
2022-11-20T11:15:55.573Z,11.00
2022-11-20T11:18:30.868Z,13.80
2022-11-20T11:21:03.643Z,13.90
2022-11-20T11:23:37.155Z,14.20
2022-11-20T11:26:09.631Z,13.30
2022-11-20T11:28:40.264Z,16.00
2022-11-20T11:31:10.777Z,15.20
2022-11-20T11:33:41.211Z,16.80
2022-11-20T11:36:22.301Z,16.00
2022-11-20T11:38:54.923Z,17.20
2022-11-20T11:41:29.533Z,17.50
2022-11-20T11:44:19.803Z,16.00
2022-11-20T11:46:55.022Z,16.70
2022-11-20T11:49:25.931Z,15.20
2022-11-20T11:52:06.513Z,17.30
2022-11-20T11:54:40.846Z,18.40
2022-11-20T11:57:18.148Z,18.30
2022-11-20T11:59:59.901Z,16.40
2022-11-20T12:02:38.899Z,14.00
2022-11-20T12:05:17.778Z,16.20
2022-11-20T12:07:50.385Z,14.40
2022-11-20T12:10:24.075Z,14.70
2022-11-20T12:13:03.023Z,15.70
2022-11-20T12:15:35.650Z,13.60
2022-11-20T12:18:11.812Z,13.60
2022-11-20T12:20:47.687Z,16.70
2022-11-20T12:23:28.570Z,19.00
2022-11-20T12:26:02.906Z,21.50
2022-11-20T12:28:42.073Z,20.70
2022-11-20T12:31:28.532Z,17.00
2022-11-20T12:34:19.090Z,16.90
2022-11-20T12:36:54.378Z,14.50
2022-11-20T12:39:34.095Z,16.40
2022-11-20T12:42:47.395Z,19.80
2022-11-20T12:45:32.863Z,16.10
2022-11-20T12:48:18.523Z,13.00
2022-11-20T12:51:13.942Z,17.00
2022-11-20T12:53:51.197Z,19.70
2022-11-20T12:56:29.824Z,14.80
2022-11-20T12:59:09.574Z,17.50
2022-11-20T13:01:45.867Z,17.80
2022-11-20T13:04:34.976Z,15.80
2022-11-20T13:07:07.567Z,18.90
2022-11-20T13:09:42.485Z,18.20
2022-11-20T13:12:16.497Z,18.10
2022-11-20T13:14:52.440Z,18.30
2022-11-20T13:17:26.677Z,18.40
2022-11-20T13:19:59.627Z,19.40
2022-11-20T13:24:59.399Z,16.00
2022-11-20T13:27:31.902Z,17.70
2022-11-20T13:30:19.148Z,17.90
2022-11-20T13:32:54.922Z,18.10
2022-11-20T13:35:34.166Z,17.20
2022-11-20T13:38:10.884Z,17.90
2022-11-20T13:40:52.297Z,18.60
2022-11-20T13:43:28.960Z,19.00
2022-11-20T13:46:04.689Z,20.50
2022-11-20T13:48:40.623Z,17.80
2022-11-20T13:51:26.697Z,18.50
2022-11-20T13:54:22.155Z,19.90
2022-11-20T13:57:01.683Z,15.60
2022-11-20T13:59:42.125Z,17.90
2022-11-20T14:02:17.154Z,19.00
2022-11-20T14:04:50.611Z,19.70
2022-11-20T14:07:22.758Z,19.70
2022-11-20T14:09:57.458Z,20.60
2022-11-20T14:12:32.599Z,20.30
2022-11-20T14:15:03.432Z,17.10
2022-11-20T14:17:36.431Z,21.20
2022-11-20T14:22:36.806Z,20.30
2022-11-20T14:25:22.474Z,22.30
2022-11-20T14:27:55.359Z,18.50
2022-11-20T14:30:27.157Z,20.00
2022-11-20T14:33:02.573Z,15.70
2022-11-20T14:35:36.631Z,21.70
2022-11-20T14:38:14.047Z,20.70
2022-11-20T14:40:44.584Z,22.00
2022-11-20T14:43:24.989Z,22.00
2022-11-20T14:45:59.499Z,19.40
2022-11-20T14:48:33.650Z,18.20
2022-11-20T14:51:04.188Z,20.80
2022-11-20T14:53:34.593Z,22.30
2022-11-20T14:56:05.755Z,22.70
2022-11-20T14:58:37.106Z,20.30
2022-11-20T15:01:09.753Z,19.50
2022-11-20T15:03:43.390Z,22.00
2022-11-20T15:06:16.467Z,19.80
2022-11-20T15:08:56.637Z,20.50
2022-11-20T15:11:34.019Z,20.10
2022-11-20T15:14:09.690Z,20.70
2022-11-20T15:16:40.838Z,18.00
2022-11-20T15:19:19.713Z,21.10
2022-11-20T15:21:53.039Z,18.70
2022-11-20T15:24:26.113Z,20.40
2022-11-20T15:26:59.264Z,19.90
2022-11-20T15:32:00.861Z,16.70
2022-11-20T15:34:33.631Z,19.40
2022-11-20T15:37:05.322Z,20.00
2022-11-20T15:39:38.037Z,20.00
2022-11-20T15:42:09.402Z,19.20
2022-11-20T15:44:40.922Z,19.90
2022-11-20T15:47:13.096Z,18.80
2022-11-20T15:49:44.788Z,18.60
2022-11-20T15:52:17.126Z,16.70
2022-11-20T15:54:48.821Z,16.50
2022-11-20T15:57:20.962Z,17.10
2022-11-20T15:59:53.099Z,15.90
2022-11-20T16:06:48.119Z,19.00
2022-11-20T16:09:18.477Z,18.10
2022-11-20T16:11:48.815Z,14.30
2022-11-20T16:14:36.853Z,17.50
2022-11-20T16:17:07.547Z,17.50
2022-11-20T16:19:37.956Z,16.70
2022-11-20T16:22:08.442Z,17.30
2022-11-20T16:24:38.843Z,17.60
2022-11-20T16:27:09.324Z,18.70
2022-11-20T16:29:39.803Z,16.50
2022-11-20T16:32:10.962Z,18.30
2022-11-20T16:34:41.323Z,18.20
2022-11-20T16:37:11.988Z,17.50
2022-11-20T16:39:42.444Z,17.20
2022-11-20T16:42:12.848Z,17.00
2022-11-20T16:44:43.348Z,15.10
2022-11-20T16:47:13.793Z,15.30
2022-11-20T16:49:44.357Z,14.30
2022-11-20T16:52:14.820Z,16.20
2022-11-20T16:54:45.315Z,15.70
2022-11-20T16:57:15.727Z,15.00
2022-11-20T16:59:46.132Z,14.10
2022-11-20T17:02:16.691Z,13.90
2022-11-20T17:04:47.155Z,14.70
2022-11-20T17:07:17.716Z,12.70
2022-11-20T17:09:48.327Z,13.50
2022-11-20T17:12:21.937Z,13.50
2022-11-20T17:14:52.412Z,13.20
2022-11-20T17:17:22.911Z,13.70
2022-11-20T17:19:53.351Z,13.30
2022-11-20T17:22:23.718Z,14.30
2022-11-20T17:24:54.180Z,13.60
2022-11-20T17:27:24.547Z,12.50
2022-11-20T17:29:57.737Z,15.40
2022-11-20T17:32:28.158Z,13.60
2022-11-20T17:34:59.183Z,15.60
2022-11-20T17:37:29.656Z,14.80
2022-11-20T17:40:00.424Z,15.60
2022-11-20T17:42:36.636Z,13.80
2022-11-20T17:45:08.354Z,13.80
2022-11-20T17:47:38.955Z,16.40
2022-11-20T17:50:10.730Z,15.50
2022-11-20T17:52:41.142Z,16.80
2022-11-20T17:55:12.862Z,16.50
2022-11-20T17:57:56.793Z,13.10
2022-11-20T18:00:28.317Z,12.80
2022-11-20T18:02:59.281Z,12.80
2022-11-20T18:05:30.171Z,12.60
2022-11-20T18:08:00.793Z,15.40
2022-11-20T18:10:33.418Z,14.80
2022-11-20T18:13:03.786Z,16.20
2022-11-20T18:15:34.196Z,12.60
2022-11-20T18:18:04.676Z,15.40
2022-11-20T18:20:39.633Z,13.40
2022-11-20T18:23:10.574Z,14.80
2022-11-20T18:25:41.051Z,15.00
2022-11-20T18:28:11.387Z,13.50
2022-11-20T18:30:41.782Z,12.00
2022-11-20T18:33:12.257Z,12.60
2022-11-20T18:35:43.216Z,11.80
2022-11-20T18:38:13.557Z,11.90
2022-11-20T18:40:43.996Z,11.40
2022-11-20T18:43:31.979Z,9.70
2022-11-20T18:46:07.933Z,9.40
2022-11-20T18:48:38.740Z,8.60
2022-11-20T18:51:11.861Z,11.00
2022-11-20T18:53:47.174Z,9.60
2022-11-20T18:56:18.028Z,9.60
2022-11-20T18:58:48.480Z,11.50
2022-11-20T19:01:18.965Z,9.70
2022-11-20T19:03:49.412Z,9.30
2022-11-20T19:06:19.924Z,10.50
2022-11-20T19:08:50.798Z,10.00
2022-11-20T19:11:21.241Z,7.30
2022-11-20T19:13:52.199Z,6.60
2022-11-20T19:16:23.472Z,6.10
2022-11-20T19:18:56.391Z,5.30
2022-11-20T19:21:27.957Z,3.90
2022-11-20T19:23:59.619Z,4.10
2022-11-20T19:26:30.899Z,3.10
2022-11-20T19:29:01.254Z,3.20
2022-11-20T19:31:31.782Z,2.60
2022-11-20T19:34:03.455Z,2.30
2022-11-20T19:36:35.428Z,1.70
2022-11-20T19:39:08.903Z,2.30
2022-11-20T19:41:40.607Z,2.20
2022-11-20T19:44:13.909Z,1.60
2022-11-20T19:46:44.756Z,2.20
2022-11-20T19:49:15.979Z,1.60
2022-11-20T19:51:49.352Z,2.20
2022-11-20T19:54:19.839Z,2.00
2022-11-20T19:56:50.618Z,1.80
2022-11-20T19:59:21.370Z,2.00
2022-11-20T20:01:52.293Z,1.80
2022-11-20T20:04:22.801Z,1.90
2022-11-20T20:06:53.268Z,1.70
2022-11-20T20:09:26.323Z,1.80
2022-11-20T20:11:57.260Z,1.40
2022-11-20T20:14:27.733Z,1.60
2022-11-20T20:16:58.262Z,1.50
2022-11-20T20:19:28.857Z,1.30
2022-11-20T20:22:00.599Z,1.50
2022-11-20T20:24:30.949Z,1.10
2022-11-20T20:27:01.451Z,1.30
2022-11-20T20:29:31.951Z,1.00
2022-11-20T20:32:02.396Z,1.40
2022-11-20T20:34:33.274Z,1.20
2022-11-20T20:37:05.178Z,1.30
2022-11-20T20:39:35.683Z,1.40
2022-11-20T20:42:06.337Z,1.20
2022-11-20T20:44:54.476Z,1.60
2022-11-20T20:47:25.057Z,1.80
2022-11-20T20:49:55.531Z,1.20
2022-11-20T20:52:27.321Z,1.40
2022-11-20T20:54:58.168Z,1.20
2022-11-20T20:57:28.733Z,1.40
2022-11-20T20:59:59.087Z,1.40
2022-11-20T21:02:29.596Z,0.90
2022-11-20T21:05:00.525Z,1.60
2022-11-20T21:07:30.955Z,1.60
2022-11-20T21:10:01.385Z,1.40
2022-11-20T21:12:31.867Z,1.40
2022-11-20T21:15:02.257Z,1.30
2022-11-20T21:17:32.650Z,2.00
2022-11-20T21:20:23.229Z,1.70
2022-11-20T21:22:53.632Z,2.00
2022-11-20T21:25:23.994Z,1.30
2022-11-20T21:27:54.471Z,1.30
2022-11-20T21:30:24.893Z,2.60
2022-11-20T21:32:55.288Z,2.00
2022-11-20T21:35:25.720Z,1.90
2022-11-20T21:37:56.436Z,2.30
2022-11-20T21:40:26.862Z,1.60
2022-11-20T21:42:57.596Z,1.90
2022-11-20T21:45:27.996Z,1.90
2022-11-20T21:47:58.860Z,1.80
2022-11-20T21:50:29.915Z,2.00
2022-11-20T21:53:00.326Z,2.10
2022-11-20T21:55:30.802Z,1.90
2022-11-20T21:58:01.227Z,2.10
2022-11-20T22:00:31.627Z,1.90
2022-11-20T22:03:02.013Z,1.80
2022-11-20T22:05:32.485Z,2.00
2022-11-20T22:08:02.967Z,2.00
2022-11-20T22:10:33.563Z,2.00
2022-11-20T22:13:18.181Z,2.10
2022-11-20T22:16:00.715Z,2.10
2022-11-20T22:18:31.722Z,6.30
2022-11-20T22:21:07.694Z,8.70
2022-11-20T22:23:38.297Z,2.00
2022-11-20T22:26:09.634Z,3.30
2022-11-20T22:28:40.449Z,3.00
2022-11-20T22:31:12.013Z,2.40
2022-11-20T22:33:42.998Z,2.00
2022-11-20T22:36:14.700Z,1.90
2022-11-20T22:38:45.218Z,1.70
2022-11-20T22:41:16.890Z,2.50
2022-11-20T22:43:48.092Z,2.30
2022-11-20T22:46:19.576Z,1.90
2022-11-20T22:48:53.709Z,2.40
2022-11-20T22:51:26.073Z,3.00
2022-11-20T22:53:56.667Z,2.70
2022-11-20T22:56:27.271Z,2.10
2022-11-20T22:58:57.788Z,1.80
2022-11-20T23:01:30.937Z,4.40
2022-11-20T23:04:03.207Z,2.80
2022-11-20T23:06:35.113Z,4.80
2022-11-20T23:09:06.776Z,1.60
2022-11-20T23:11:37.504Z,1.40
2022-11-20T23:14:09.203Z,1.50
2022-11-20T23:16:39.629Z,1.50
2022-11-20T23:19:14.051Z,1.60
2022-11-20T23:21:45.287Z,1.20
2022-11-20T23:24:15.730Z,1.60
2022-11-20T23:26:48.041Z,1.60
2022-11-20T23:29:18.603Z,0.90
2022-11-20T23:31:49.097Z,1.20
2022-11-20T23:34:19.730Z,1.10
2022-11-20T23:36:50.080Z,1.30
2022-11-20T23:39:20.493Z,1.00
2022-11-20T23:41:50.924Z,1.10
2022-11-20T23:44:23.445Z,1.00
2022-11-20T23:46:53.834Z,1.20
2022-11-20T23:49:24.235Z,1.40
2022-11-20T23:51:54.597Z,1.10
2022-11-20T23:54:25.304Z,1.10
2022-11-20T23:56:56.009Z,1.20
2022-11-20T23:59:26.466Z,1.10
